Flight Track Log - Related Links

Times and Time Zones

All times are in EDT time to prevent confusion due to time zone crossing. See the ASA525 flight status page for this flight to view local times or setup timezone preferences in your user account.

Time Position Orientation Groundspeed Altitude Reporting Facility
EDT Latitude Longitude Course Direction KTS MPH feet Rate Location/Type
Thu 02:51:15 PM 34.1747 -118.3583 251° West 171 197 40,000  Level Los Angeles Center
Thu 02:52:17 PM 34.1572 -118.4183 251° West 232 267 4,300 -16,306 Descending Los Angeles Center
Thu 02:53:19 PM 34.2133 -118.4592 329° Northwest 242 278 6,300 2,468 Climbing Los Angeles Center
Thu 02:54:21 PM 34.2811 -118.5067 330° Northwest 278 320 9,400 3,242 Climbing Los Angeles Center
Thu 02:55:23 PM 34.3528 -118.5536 332° Northwest 293 337 13,000 3,387 Climbing Los Angeles Center
Thu 02:56:25 PM 34.4267 -118.6036 331° Northwest 302 348 16,400 3,024 Climbing Los Angeles Center
Thu 02:57:28 PM 34.5189 -118.6664 331° Northwest 324 373 19,300 2,208 Climbing Los Angeles Center
Thu 02:58:30 PM 34.6103 -118.7294 330° Northwest 381 438 21,000 1,742 Climbing Los Angeles Center
Thu 02:59:32 PM 34.7106 -118.7983 331° Northwest 417 480 22,900 1,790 Climbing Los Angeles Center
Thu 03:00:34 PM 34.8169 -118.8667 332° Northwest 431 496 24,700 1,839 Climbing Los Angeles Center
Thu 03:01:36 PM 34.9389 -118.9125 343° North 448 516 26,700 1,790 Climbing Los Angeles Center
Thu 03:02:38 PM 35.0611 -118.9611 342° North 458 527 28,400 1,809 Climbing Los Angeles Center
Thu 03:03:52 PM 35.2092 -119.0183 342° North 465 535 30,800 2,295 Climbing Los Angeles Center
Thu 03:05:07 PM 35.3531 -119.0731 343° North 460 529 34,100 2,058 Climbing Los Angeles Center
Thu 03:06:09 PM 35.4911 -119.1281 342° North 444 511 35,500 1,355 Climbing Los Angeles Center
Thu 03:07:11 PM 35.6092 -119.1747 342° North 444 511 36,900 1,258 Climbing Los Angeles Center
Thu 03:08:13 PM 35.7272 -119.2217 342° North 446 513 38,100 1,152 Climbing Los Angeles Center
Thu 03:09:16 PM 35.8675 -119.2758 343° North 443 510 39,300 912 Climbing Los Angeles Center
Thu 03:10:18 PM 35.9842 -119.3236 342° North 443 510 40,000 339 Climbing Los Angeles Center
Thu 03:11:20 PM 36.1028 -119.3708 342° North 448 516 40,000  Level Los Angeles Center
Thu 03:12:22 PM 36.2217 -119.4172 343° North 449 517 40,000  Level Los Angeles Center
Thu 03:13:28 PM 36.3406 -119.4669 341° North 452 520 40,000  Level Los Angeles Center
Thu 03:14:26 PM 36.4822 -119.5225 343° North 447 514 40,000  Level Los Angeles Center
Thu 03:15:33 PM 36.6011 -119.5681 343° North 448 516 40,000  Level Oakland Center
Thu 03:16:35 PM 36.7194 -119.6153 342° North 448 516 40,000  Level Oakland Center
Thu 03:17:36 PM 36.8592 -119.6736 342° North 443 510 40,000  Level Oakland Center
Thu 03:18:38 PM 36.9775 -119.7233 341° North 443 510 40,000  Level Oakland Center
Thu 03:19:39 PM 37.0947 -119.7711 342° North 443 510 40,000  Level Oakland Center
Thu 03:20:41 PM 37.2103 -119.8186 342° North 439 505 40,000  Level Oakland Center
Thu 03:21:42 PM 37.3256 -119.8658 342° North 436 502 40,000  Level Oakland Center
Thu 03:22:44 PM 37.4414 -119.9142 342° North 438 504 40,000  Level Oakland Center
Thu 03:23:45 PM 37.5556 -119.9611 342° North 434 499 40,000  Level Oakland Center
Thu 03:24:47 PM 37.6722 -120.0025 344° North 437 503 40,000  Level Oakland Center
Thu 03:25:48 PM 37.8072 -120.0608 341° North 431 496 40,000  Level Oakland Center
Thu 03:26:50 PM 37.9217 -120.0978 346° North 426 490 40,000  Level Oakland Center
Thu 03:27:51 PM 38.0383 -120.1300 348° North 427 491 40,000  Level Oakland Center
Thu 03:28:53 PM 38.1550 -120.1625 348° North 429 494 40,000  Level Oakland Center
Thu 03:29:55 PM 38.2725 -120.1972 347° North 432 497 40,000  Level Oakland Center
Thu 03:30:56 PM 38.3906 -120.2303 348° North 434 499 40,000  Level Oakland Center
Thu 03:32:00 PM 38.5089 -120.2634 348° North  Level FlightAware Approximate
Thu 03:32:59 PM 38.6528 -120.3078 348° North 443 510 40,000  Level Oakland Center
Thu 03:34:01 PM 38.7722 -120.3417 348° North 443 510 40,000  Level Oakland Center
Thu 03:35:02 PM 38.8917 -120.3772 347° North 443 510 40,000  Level Oakland Center
Thu 03:36:04 PM 39.0108 -120.4108 348° North 441 507 40,000  Level Oakland Center
Thu 03:37:05 PM 39.1303 -120.4456 347° North 440 506 40,000  Level Oakland Center
Thu 03:38:07 PM 39.2489 -120.4808 347° North 440 506 40,000  Level Oakland Center
Thu 03:39:08 PM 39.3689 -120.5175 347° North 442 509 40,000  Level Oakland Center
Thu 03:40:10 PM 39.5111 -120.5600 347° North 440 506 40,000  Level Oakland Center
Thu 03:41:11 PM 39.6294 -120.5953 347° North 437 503 40,000  Level Oakland Center
Thu 03:42:13 PM 39.7481 -120.6311 347° North 438 504 40,000  Level Oakland Center
Thu 03:43:14 PM 39.8650 -120.6631 348° North 435 501 40,000  Level Oakland Center
Thu 03:44:16 PM 39.9847 -120.6986 347° North 438 504 40,000  Level Oakland Center
Thu 03:45:17 PM 40.1028 -120.7333 347° North 440 506 40,000  Level Oakland Center
Thu 03:46:19 PM 40.2228 -120.7711 346° North 441 507 40,000  Level Oakland Center
Thu 03:47:21 PM 40.3458 -120.8122 346° North 453 521 40,000  Level Oakland Center
Thu 03:48:22 PM 40.4900 -120.8542 348° North 444 511 40,000  Level Oakland Center
Thu 03:49:24 PM 40.6072 -120.8814 350° North 448 516 40,000  Level Oakland Center
Thu 03:50:25 PM 40.7281 -120.9147 348° North 449 517 40,000  Level Oakland Center
Thu 03:51:26 PM 40.8422 -120.9572 344° North 435 501 40,000  Level Seattle Center
Thu 03:52:27 PM 40.9597 -120.9917 348° North 434 499 40,000  Level Seattle Center
Thu 03:53:28 PM 41.0767 -121.0294 346° North 434 499 40,000  Level Seattle Center
Thu 03:54:29 PM 41.1942 -121.0681 346° North 435 501 40,000  Level Seattle Center
Thu 03:55:30 PM 41.3122 -121.1047 347° North 436 502 40,000  Level Seattle Center
Thu 03:56:32 PM 41.4306 -121.1411 347° North 437 503 40,000  Level Seattle Center
Thu 03:57:33 PM 41.5500 -121.1792 347° North 440 506 40,000  Level Seattle Center
Thu 03:58:34 PM 41.6928 -121.2247 347° North 441 507 40,000  Level Seattle Center
Thu 03:59:35 PM 41.8133 -121.2628 347° North 446 513 40,000  Level Seattle Center
Thu 04:00:36 PM 41.9325 -121.3014 346° North 444 511 40,000  Level Seattle Center
Thu 04:01:37 PM 42.0497 -121.3375 347° North 442 509 40,000  Level Seattle Center
Thu 04:02:38 PM 42.1692 -121.3750 347° North 445 512 40,000  Level Seattle Center
Thu 04:03:39 PM 42.2908 -121.4147 346° North 454 522 40,000  Level Seattle Center
Thu 04:04:40 PM 42.4100 -121.4533 347° North 445 512 40,000  Level Seattle Center
Thu 04:05:41 PM 42.5297 -121.4900 347° North 443 510 40,000  Level Seattle Center
Thu 04:06:42 PM 42.6472 -121.5278 347° North 437 503 40,000  Level Seattle Center
Thu 04:07:44 PM 42.7878 -121.5725 347° North 434 499 40,000  Level Seattle Center
Thu 04:08:45 PM 42.9033 -121.6114 346° North 431 496 40,000  Level Seattle Center
Thu 04:09:46 PM 43.0203 -121.6511 346° North 433 498 40,000  Level Seattle Center
Thu 04:10:47 PM 43.1356 -121.6903 346° North 428 493 40,000  Level Seattle Center
Thu 04:11:48 PM 43.2519 -121.7294 346° North 429 494 40,000  Level Seattle Center
Thu 04:12:49 PM 43.3672 -121.7672 347° North 426 490 40,000  Level Seattle Center
Thu 04:13:50 PM 43.4836 -121.8061 346° North 429 494 40,000  Level Seattle Center
Thu 04:14:51 PM 43.5989 -121.8433 347° North 427 491 40,000  Level Seattle Center
Thu 04:15:52 PM 43.7356 -121.8875 347° North 433 498 40,000  Level Seattle Center
Thu 04:16:53 PM 43.8514 -121.9261 346° North 431 496 40,000  Level Seattle Center
Thu 04:17:54 PM 43.9658 -121.9761 343° North 437 503 40,000  Level Seattle Center
Thu 04:18:55 PM 44.0686 -122.0758 325° Northwest 451 519 40,000  Level Seattle Center
Thu 04:19:56 PM 44.1700 -122.1722 326° Northwest 445 512 40,000  Level Seattle Center
Thu 04:20:57 PM 44.2722 -122.2686 326° Northwest 445 512 40,000  Level Seattle Center
Thu 04:21:58 PM 44.3728 -122.3661 325° Northwest 443 510 40,000  Level Seattle Center
Thu 04:22:59 PM 44.4731 -122.4619 326° Northwest 441 507 40,000 -197 Level Seattle Center
Thu 04:24:00 PM 44.5858 -122.5197 340° North 447 514 39,600 -689 Descending Seattle Center
Thu 04:25:01 PM 44.7028 -122.5258 358° North 429 494 38,600 -787 Descending Seattle Center
Thu 04:26:02 PM 44.8436 -122.5347 357° North 425 489 38,000 -295 Descending Seattle Center
Thu 04:27:03 PM 44.9567 -122.5406 358° North 423 487 38,000  Level Seattle Center
Thu 04:28:04 PM 45.0733 -122.5489 357° North 423 487 38,000  Level Seattle Center
Thu 04:29:05 PM 45.1892 -122.5558 358° North 421 484 38,000  Level Seattle Center
Thu 04:30:07 PM 45.3058 -122.5625 358° North 422 486 38,000  Level Seattle Center
Thu 04:31:08 PM 45.4236 -122.5703 357° North 426 490 38,000  Level Seattle Center
Thu 04:32:09 PM 45.5422 -122.5778 357° North 429 494 38,000  Level Seattle Center
Thu 04:33:10 PM 45.6583 -122.5850 358° North 424 488 38,000  Level Seattle Center
Thu 04:34:11 PM 45.7756 -122.5942 357° North 424 488 38,000  Level Seattle Center
Thu 04:35:12 PM 45.9136 -122.6317 349° North 423 487 38,000 -1,377 Level Seattle Center
Thu 04:36:13 PM 46.0328 -122.6606 350° North 428 493 35,200 -3,197 Descending Seattle Center
Thu 04:37:14 PM 46.1517 -122.6881 351° North 436 502 31,500 -3,049 Descending Seattle Center
Thu 04:38:15 PM 46.2744 -122.7092 353° North 447 514 29,000 -2,390 Descending Seattle Center
Thu 04:39:17 PM 46.3911 -122.7236 355° North 430 495 26,600 -2,341 Descending Seattle Center
Thu 04:40:18 PM 46.5058 -122.7181 North 417 480 24,200 -2,311 Descending Seattle Center
Thu 04:41:19 PM 46.6161 -122.7131 North 402 463 21,900 -2,488 Descending Seattle Center
Thu 04:41:40 PM 46.6708 -122.7122 North 391 450 20,800 -2,586 Descending Seattle Center
Thu 04:42:17 PM 46.7367 -122.7094 North 384 442 19,400 -1,898 Descending Seattle Center
Thu 04:43:18 PM 46.8356 -122.6789 12° North 370 426 17,700 -1,878 Descending Seattle Center
Thu 04:44:12 PM 46.9083 -122.5978 37° Northeast 353 406 15,800 -2,035 Descending Seattle Center
Thu 04:45:13 PM 46.9953 -122.5378 25° Northeast 346 398 13,800 -1,721 Descending Seattle Center
Thu 04:46:14 PM 47.0833 -122.4997 16° North 335 386 12,300 -1,574 Descending Seattle Center
Thu 04:47:15 PM 47.1706 -122.4847 North 311 358 10,600 -1,377 Descending Seattle Center
Thu 04:48:16 PM 47.2597 -122.4686 North 295 339 9,500 -1,045 Descending Seattle Center
Thu 04:49:27 PM 47.3464 -122.4558 North 271 312 8,300 -1,031 Descending Seattle Center
Thu 04:50:24 PM 47.4122 -122.4572 359° North 254 292 7,300 -1,131 Descending Seattle Center
Thu 04:51:29 PM 47.4864 -122.4558 North 247 284 6,000 -1,190 Descending Seattle Center
Thu 04:52:25 PM 47.5500 -122.4569 359° North 242 278 4,900 -1,026 Descending Seattle Center
Thu 04:53:26 PM 47.6025 -122.4183 26° Northeast 234 269 4,000 -776 Descending Seattle Center
Thu 04:54:21 PM 47.5894 -122.3400 104° East 213 245 3,400 -776 Descending Seattle Center
Thu 04:55:22 PM 47.5400 -122.3117 159° South 184 212 2,500 -1,033 Descending Seattle Center
Thu 04:56:23 PM 47.4933 -122.3111 180° South 141 162 1,300 -947 Descending Seattle Center
Thu 04:57:35 PM 47.4478 -122.3122 181° South 140 161 400 -750 Descending Seattle Center
Thu 04:59:00 PM 47.4499 -122.3118 North  Level Estimated

Login

Don't have an account? Register now (free) for customized features, flight alerts, and more!